Time;durP1;ratioP1;P1;durP2;ratioP2;P2;SDS_P1;SDS_P2;PMS_P1;PMS_P2;Temp;Humidity;BMP_temperature;BMP_pressure;BME280_temperature;BME280_humidity;BME280_pressure;Samples;Min_cycle;Max_cycle;Signal;HPM_P1;HPM_P2
2022/05/05 05:15:33;;;;;;;5.20;3.40;;;21.30;60.00;;;;;;5084080;28;20694;-56
2022/05/05 05:18:00;;;;;;;5.23;2.83;;;21.50;62.50;;;;;;5068790;28;20455;-55
2022/05/05 05:20:27;;;;;;;5.03;3.40;;;21.40;62.10;;;;;;5068815;28;20440;-52
2022/05/05 05:22:53;;;;;;;6.40;2.80;;;21.50;61.10;;;;;;5069010;28;20440;-50
2022/05/05 05:25:20;;;;;;;4.30;3.07;;;21.50;60.10;;;;;;5068762;28;20484;-51
2022/05/05 05:27:47;;;;;;;6.23;3.60;;;21.60;59.70;;;;;;5091001;22;20876;-50
2022/05/05 05:30:14;;;;;;;3.90;3.60;;;21.60;59.30;;;;;;5060354;28;20442;-49
2022/05/05 05:32:42;;;;;;;5.43;2.83;;;21.60;59.00;;;;;;5068768;28;20443;-50
2022/05/05 05:35:09;;;;;;;9.43;3.43;;;21.60;58.80;;;;;;5068651;28;20443;-49
2022/05/05 05:37:36;;;;;;;3.63;3.30;;;21.60;58.50;;;;;;5068295;28;20538;-49
2022/05/05 05:40:03;;;;;;;3.77;2.90;;;21.60;58.30;;;;;;5068647;28;20443;-50
2022/05/05 05:42:29;;;;;;;4.57;3.27;;;21.60;58.10;;;;;;5068453;28;20940;-49
2022/05/05 05:44:56;;;;;;;4.53;3.13;;;21.60;57.90;;;;;;5068471;28;20479;-50
2022/05/05 05:47:23;;;;;;;9.97;2.90;;;21.60;57.70;;;;;;5068085;28;20486;-49
2022/05/05 05:49:51;;;;;;;5.23;3.00;;;21.60;57.60;;;;;;5068393;28;20822;-50
2022/05/05 05:52:18;;;;;;;3.50;2.73;;;21.60;57.40;;;;;;5068408;28;20443;-50
2022/05/05 05:54:45;;;;;;;4.73;3.53;;;21.60;57.30;;;;;;5068231;28;20446;-49
2022/05/05 05:57:11;;;;;;;3.83;2.60;;;21.60;57.10;;;;;;5068105;28;20464;-52
2022/05/05 05:59:38;;;;;;;4.33;1.93;;;21.60;57.00;;;;;;5068198;28;20448;-49
2022/05/05 06:04:51;;;;;;;3.30;2.37;;;21.60;56.90;;;;;;5068093;28;20477;-48
2022/05/05 06:07:18;;;;;;;3.93;2.70;;;21.60;56.80;;;;;;5067776;28;20478;-49
2022/05/05 06:09:45;;;;;;;2.67;2.47;;;21.60;56.70;;;;;;5068056;28;20443;-49
2022/05/05 06:12:12;;;;;;;3.03;2.20;;;21.60;56.60;;;;;;5067868;28;20455;-49
2022/05/05 06:14:38;;;;;;;4.80;2.87;;;21.60;56.50;;;;;;5067919;28;20810;-49
2022/05/05 06:17:06;;;;;;;4.00;2.50;;;21.60;56.40;;;;;;5067597;28;20478;-49
2022/05/05 06:19:33;;;;;;;3.57;2.47;;;21.60;56.40;;;;;;5067727;28;20789;-50
2022/05/05 06:22:01;;;;;;;2.60;2.20;;;21.60;56.90;;;;;;5067799;28;20458;-49
2022/05/05 06:24:28;;;;;;;2.37;2.23;;;21.60;56.20;;;;;;5067445;28;20480;-49
2022/05/05 06:26:55;;;;;;;2.57;2.37;;;21.60;56.20;;;;;;5054010;28;20446;-48
2022/05/05 06:29:21;;;;;;;3.40;2.50;;;21.60;56.20;;;;;;5054448;28;20937;-48
2022/05/05 06:31:48;;;;;;;5.20;2.50;;;21.60;56.10;;;;;;5054225;28;20451;-48
2022/05/05 06:34:15;;;;;;;3.20;2.80;;;21.60;56.00;;;;;;5054330;28;20507;-49
2022/05/05 06:36:41;;;;;;;2.87;2.57;;;21.60;56.00;;;;;;5054048;28;20789;-48
2022/05/05 06:39:10;;;;;;;3.17;2.90;;;21.60;55.90;;;;;;5054277;28;20444;-48
2022/05/05 06:41:37;;;;;;;2.37;2.17;;;21.60;55.90;;;;;;5054044;28;20452;-49
2022/05/05 06:44:04;;;;;;;1.93;1.70;;;21.60;55.80;;;;;;5054034;28;20490;-49
2022/05/05 06:46:30;;;;;;;4.03;2.60;;;21.60;55.80;;;;;;5053908;28;20470;-48
2022/05/05 06:48:57;;;;;;;2.40;2.20;;;21.60;55.70;;;;;;5053977;28;20494;-49
2022/05/05 06:51:24;;;;;;;3.83;2.43;;;21.60;55.60;;;;;;5053987;28;20448;-50
2022/05/05 06:53:51;;;;;;;2.27;2.07;;;21.60;55.60;;;;;;5054102;28;20463;-50
2022/05/05 06:56:19;;;;;;;2.97;2.77;;;21.60;55.60;;;;;;5053836;28;20446;-50
2022/05/05 06:58:46;;;;;;;3.50;2.10;;;21.60;55.50;;;;;;5053715;28;20514;-50
2022/05/05 07:06:37;;;;;;;2.60;2.10;;;21.60;55.40;;;;;;5053175;28;20795;-49
2022/05/05 07:11:55;;;;;;;2.67;2.50;;;21.60;55.40;;;;;;5014900;28;20589;-51
2022/05/05 07:14:22;;;;;;;4.17;2.70;;;21.60;55.30;;;;;;5053670;28;20441;-53
2022/05/05 07:16:49;;;;;;;2.20;1.87;;;21.60;55.30;;;;;;5053188;28;20451;-51
2022/05/05 07:19:16;;;;;;;2.17;2.07;;;21.60;55.30;;;;;;5053474;28;20803;-49
2022/05/05 07:21:42;;;;;;;3.00;2.40;;;21.60;55.20;;;;;;5053447;28;20816;-49
2022/05/05 07:24:09;;;;;;;3.47;2.10;;;21.60;55.20;;;;;;5053241;28;20484;-49
2022/05/05 07:26:36;;;;;;;2.90;2.20;;;21.60;55.10;;;;;;5053177;28;20794;-48
2022/05/05 07:29:04;;;;;;;2.00;1.90;;;21.60;55.10;;;;;;5053025;28;20468;-49
2022/05/05 07:31:31;;;;;;;4.50;2.07;;;21.60;55.00;;;;;;5053163;28;20448;-51
2022/05/05 07:33:58;;;;;;;2.23;2.10;;;21.60;55.10;;;;;;5053323;28;20443;-48
2022/05/05 07:36:25;;;;;;;2.30;2.10;;;21.60;55.00;;;;;;5052610;28;21003;-49
2022/05/05 07:38:52;;;;;;;4.13;2.17;;;21.60;55.00;;;;;;5052345;28;20460;-49
2022/05/05 07:41:18;;;;;;;2.23;2.03;;;21.60;55.00;;;;;;5053145;28;20444;-48
2022/05/05 07:43:45;;;;;;;2.20;2.00;;;21.60;54.90;;;;;;5053158;28;20450;-50
2022/05/05 07:46:16;;;;;;;2.73;2.53;;;21.60;54.90;;;;;;5052818;28;21008;-49
2022/05/05 07:48:43;;;;;;;2.30;2.10;;;21.60;54.90;;;;;;5052805;28;20508;-49
2022/05/05 07:51:10;;;;;;;2.53;2.33;;;21.60;54.80;;;;;;5052799;28;20452;-48
2022/05/05 07:53:37;;;;;;;2.00;1.90;;;21.60;54.80;;;;;;5052814;28;20820;-49
2022/05/05 07:56:04;;;;;;;2.20;2.10;;;21.60;54.80;;;;;;5052884;28;20448;-53
2022/05/05 07:58:31;;;;;;;2.13;2.03;;;21.60;54.80;;;;;;5052527;28;20750;-53
2022/05/05 08:00:58;;;;;;;2.27;2.17;;;21.60;54.70;;;;;;5052710;28;20454;-49
2022/05/05 08:03:26;;;;;;;2.27;2.17;;;21.60;54.70;;;;;;5052927;28;20444;-51
2022/05/05 08:05:53;;;;;;;2.63;2.23;;;21.60;54.70;;;;;;5052652;28;20563;-50
2022/05/05 08:08:19;;;;;;;1.97;1.87;;;21.60;54.70;;;;;;5052227;28;20472;-49
2022/05/05 08:10:47;;;;;;;2.00;1.90;;;21.60;54.70;;;;;;5052579;28;20444;-50
2022/05/05 08:13:14;;;;;;;2.53;2.33;;;21.60;54.70;;;;;;5052629;28;20444;-54
2022/05/05 08:15:40;;;;;;;1.57;1.47;;;21.70;54.70;;;;;;5052367;28;20437;-50
2022/05/05 08:18:08;;;;;;;2.00;1.90;;;21.60;54.60;;;;;;5051969;28;20481;-50
2022/05/05 08:20:36;;;;;;;2.77;1.90;;;21.60;54.60;;;;;;5052504;28;20445;-53
2022/05/05 08:23:03;;;;;;;2.33;2.23;;;21.60;54.60;;;;;;5052439;28;20446;-49
2022/05/05 08:28:36;;;;;;;2.27;2.07;;;21.60;54.50;;;;;;5051810;28;20838;-48
2022/05/05 08:31:03;;;;;;;2.77;2.67;;;21.60;54.50;;;;;;5052168;28;20736;-49
2022/05/05 08:33:30;;;;;;;1.80;1.70;;;21.60;54.50;;;;;;5052085;28;20989;-49
2022/05/05 08:35:59;;;;;;;1.57;1.57;;;21.70;54.60;;;;;;5052032;28;20444;-48
2022/05/05 08:38:26;;;;;;;2.13;2.00;;;21.60;54.50;;;;;;5051701;28;20475;-49
2022/05/05 08:40:53;;;;;;;2.13;2.03;;;21.70;54.60;;;;;;5051911;28;20440;-50
2022/05/05 08:43:20;;;;;;;1.73;1.63;;;21.70;54.60;;;;;;5051906;28;20448;-49
2022/05/05 08:45:49;;;;;;;2.10;2.00;;;21.70;54.60;;;;;;5051728;28;20494;-49
2022/05/05 08:48:16;;;;;;;1.40;1.40;;;21.70;54.50;;;;;;5051368;28;20471;-49
2022/05/05 08:50:45;;;;;;;1.97;1.87;;;21.70;54.50;;;;;;5051782;28;20451;-49
2022/05/05 08:53:15;;;;;;;1.80;1.70;;;21.70;54.40;;;;;;5051807;28;20806;-48
2022/05/05 08:55:44;;;;;;;2.10;2.00;;;21.70;54.40;;;;;;5051842;28;20811;-48
2022/05/05 08:58:10;;;;;;;1.60;1.50;;;21.70;54.40;;;;;;5051552;28;20486;-48
2022/05/05 09:00:37;;;;;;;2.07;1.73;;;21.70;54.50;;;;;;5051778;28;20448;-49
2022/05/05 09:03:08;;;;;;;1.50;1.40;;;21.70;54.40;;;;;;5051782;28;20817;-49
2022/05/05 09:05:52;;;;;;;2.07;1.50;;;21.70;54.40;;;;;;5051448;28;20479;-49
2022/05/05 09:08:32;;;;;;;1.60;1.50;;;21.70;54.40;;;;;;5051493;28;20468;-49
2022/05/05 09:11:01;;;;;;;1.80;1.70;;;21.70;54.40;;;;;;5051605;28;20448;-48
2022/05/05 09:13:29;;;;;;;1.90;1.80;;;21.70;54.40;;;;;;5051453;28;20452;-49
2022/05/05 09:15:56;;;;;;;1.47;1.40;;;21.70;54.40;;;;;;5051561;28;20448;-48
2022/05/05 09:18:26;;;;;;;1.70;1.60;;;21.70;54.40;;;;;;5051357;28;21098;-49
2022/05/05 09:20:53;;;;;;;1.93;1.83;;;21.70;54.40;;;;;;5051458;28;20474;-48
2022/05/05 09:23:32;;;;;;;1.70;1.60;;;21.70;54.40;;;;;;5051557;28;20448;-49
2022/05/05 09:25:59;;;;;;;1.60;1.50;;;21.70;54.40;;;;;;5051290;28;20534;-49
2022/05/05 09:28:28;;;;;;;1.77;1.67;;;21.70;54.40;;;;;;5050954;28;20503;-49
2022/05/05 09:30:56;;;;;;;2.20;2.10;;;21.70;54.30;;;;;;5051379;28;20811;-49
2022/05/05 09:33:42;;;;;;;1.87;1.80;;;21.70;54.30;;;;;;5051405;28;20445;-48
2022/05/05 09:36:09;;;;;;;1.40;1.30;;;21.70;54.30;;;;;;5051348;28;20436;-49
2022/05/05 09:38:58;;;;;;;1.40;1.30;;;21.70;54.30;;;;;;5051016;28;20474;-49
2022/05/05 09:41:26;;;;;;;1.70;1.50;;;21.70;54.20;;;;;;5051306;28;20518;-49
2022/05/05 09:43:55;;;;;;;1.60;1.50;;;21.70;54.20;;;;;;5051281;28;20444;-49
2022/05/05 09:46:34;;;;;;;3.13;1.50;;;21.70;54.20;;;;;;5051145;28;20480;-48
2022/05/05 09:49:10;;;;;;;1.60;1.50;;;21.70;54.10;;;;;;5051087;28;20875;-49
2022/05/05 09:51:40;;;;;;;1.77;1.50;;;21.70;54.20;;;;;;5051289;28;20816;-49
2022/05/05 09:59:46;;;;;;;1.20;1.20;;;21.70;54.10;;;;;;5051189;28;20415;-48
2022/05/05 10:04:00;;;;;;;1.43;1.43;;;21.70;54.10;;;;;;5054655;28;20463;-48
2022/05/05 10:05:08;;;;;;;1.60;1.40;;;21.70;54.10;;;;;;5054614;28;20480;-48
2022/05/05 10:07:38;;;;;;;1.30;1.30;;;21.70;54.10;;;;;;5054441;28;20468;-48
2022/05/05 10:10:08;;;;;;;1.30;1.30;;;21.70;54.00;;;;;;5054765;28;20503;-48
2022/05/05 10:12:35;;;;;;;1.60;1.50;;;21.70;54.10;;;;;;5054709;28;20884;-49
2022/05/05 10:15:02;;;;;;;1.40;1.40;;;21.70;54.00;;;;;;5054695;28;20509;-48
2022/05/05 10:17:29;;;;;;;1.33;1.33;;;21.70;54.00;;;;;;5054271;28;20471;-48
2022/05/05 10:19:56;;;;;;;1.63;1.63;;;21.70;54.00;;;;;;5054556;28;20440;-49
2022/05/05 10:22:34;;;;;;;1.30;1.27;;;21.70;54.50;;;;;;5054522;28;20454;-49
2022/05/05 10:25:09;;;;;;;1.00;1.00;;;21.80;54.00;;;;;;5054376;28;20479;-48
2022/05/05 10:27:42;;;;;;;1.30;1.30;;;21.70;53.90;;;;;;5054078;28;20471;-48
2022/05/05 10:30:14;;;;;;;2.00;1.90;;;21.80;54.00;;;;;;5054406;28;20448;-48
2022/05/05 10:32:41;;;;;;;1.43;1.40;;;21.80;54.00;;;;;;5054440;28;20447;-48
2022/05/05 10:35:22;;;;;;;1.80;1.70;;;21.80;54.00;;;;;;5054311;28;20806;-49
2022/05/05 10:37:49;;;;;;;1.47;1.47;;;21.80;53.90;;;;;;5053983;28;20460;-50
2022/05/05 10:40:18;;;;;;;1.77;1.67;;;21.80;53.90;;;;;;5054178;28;20447;-49
2022/05/05 10:42:46;;;;;;;1.60;1.50;;;21.80;53.90;;;;;;5054111;28;20471;-51
2022/05/05 10:45:14;;;;;;;1.07;1.07;;;21.80;53.80;;;;;;5053993;28;20484;-48
2022/05/05 10:48:12;;;;;;;1.30;1.30;;;21.80;53.80;;;;;;5053829;28;20997;-49
2022/05/05 10:50:43;;;;;;;1.20;1.20;;;21.80;53.80;;;;;;4992523;28;20449;-49
2022/05/05 10:53:26;;;;;;;2.10;1.47;;;21.80;53.80;;;;;;5041355;28;20468;-48
2022/05/05 10:55:54;;;;;;;1.53;1.43;;;21.80;53.70;;;;;;5053933;28;20436;-48
2022/05/05 10:58:58;;;;;;;1.43;1.40;;;21.80;53.70;;;;;;5053668;28;20563;-48
2022/05/05 11:01:25;;;;;;;1.30;1.23;;;21.80;53.70;;;;;;5053746;28;20440;-48
2022/05/05 11:04:08;;;;;;;1.37;1.37;;;21.80;53.70;;;;;;5053700;28;20444;-50
2022/05/05 11:06:38;;;;;;;1.27;1.20;;;21.90;53.70;;;;;;5053513;28;20483;-49
2022/05/05 11:09:05;;;;;;;2.00;1.60;;;21.80;53.60;;;;;;5053781;28;20470;-49
2022/05/05 11:11:42;;;;;;;1.40;1.30;;;21.80;53.60;;;;;;5053625;28;20476;-48
2022/05/05 11:22:45;;;;;;;1.40;1.40;;;21.90;53.60;;;;;;5053559;28;20446;-49
2022/05/05 11:25:11;;;;;;;1.43;1.33;;;21.90;53.50;;;;;;5053326;28;20956;-48
2022/05/05 11:27:40;;;;;;;1.60;1.50;;;21.90;53.60;;;;;;5072735;22;20519;-54
2022/05/05 11:30:08;;;;;;;1.60;1.50;;;21.90;53.60;;;;;;5033141;28;21130;-53
2022/05/05 11:32:35;;;;;;;1.50;1.40;;;21.90;53.50;;;;;;5033290;28;20449;-53
2022/05/05 11:35:03;;;;;;;1.00;1.00;;;21.90;53.50;;;;;;5033283;28;20484;-57
2022/05/05 11:37:32;;;;;;;1.63;1.53;;;21.90;53.50;;;;;;5032914;28;20465;-54
2022/05/05 11:40:02;;;;;;;1.20;1.20;;;21.90;53.50;;;;;;5033121;28;20875;-55
2022/05/05 11:42:29;;;;;;;1.47;1.40;;;21.90;53.50;;;;;;5033002;28;20536;-55
2022/05/05 11:44:56;;;;;;;1.33;1.33;;;21.90;53.50;;;;;;5033129;28;20914;-54
2022/05/05 11:47:24;;;;;;;2.10;2.00;;;21.90;53.40;;;;;;5032801;28;20477;-53
2022/05/05 11:49:53;;;;;;;1.43;1.33;;;21.90;53.40;;;;;;5032934;28;20540;-52
2022/05/05 11:52:21;;;;;;;1.40;1.33;;;21.90;53.40;;;;;;5032930;28;20452;-53
2022/05/05 11:54:52;;;;;;;1.20;1.20;;;21.90;53.30;;;;;;5032722;28;20467;-54
2022/05/05 11:57:32;;;;;;;1.43;1.43;;;22.00;53.40;;;;;;5032484;28;20441;-54
2022/05/05 12:02:44;;;;;;;1.30;1.20;;;21.90;53.30;;;;;;5032920;28;20457;-54
2022/05/05 12:05:11;;;;;;;1.43;1.43;;;21.90;53.20;;;;;;5032568;28;20934;-52
2022/05/05 12:07:39;;;;;;;1.00;1.00;;;22.00;53.30;;;;;;5032347;28;20468;-53
2022/05/05 12:10:08;;;;;;;1.83;1.73;;;21.90;53.20;;;;;;5032479;28;20499;-53
2022/05/05 12:12:37;;;;;;;1.60;1.50;;;22.00;53.20;;;;;;5032569;28;20508;-54
2022/05/05 12:15:07;;;;;;;1.50;1.40;;;22.00;53.20;;;;;;5032431;28;20449;-56
2022/05/05 12:17:35;;;;;;;1.20;1.20;;;22.00;53.20;;;;;;5032156;28;20465;-54
2022/05/05 12:20:06;;;;;;;1.50;1.50;;;22.00;53.20;;;;;;5032389;28;20925;-51
2022/05/05 12:22:37;;;;;;;1.50;1.50;;;22.00;53.70;;;;;;5032327;28;20536;-55
2022/05/05 12:25:07;;;;;;;1.37;1.30;;;22.00;53.20;;;;;;5031915;28;20457;-50
2022/05/05 12:27:34;;;;;;;1.40;1.40;;;22.00;53.20;;;;;;5031731;28;20516;-56
2022/05/05 12:30:01;;;;;;;1.23;1.23;;;22.00;53.20;;;;;;5032352;28;20451;-55
2022/05/05 12:32:31;;;;;;;1.73;1.63;;;22.00;53.20;;;;;;5032251;28;20503;-56
2022/05/05 12:35:04;;;;;;;1.20;1.20;;;22.00;53.20;;;;;;5032475;28;20862;-58
2022/05/05 12:37:31;;;;;;;1.43;1.43;;;22.00;53.10;;;;;;5031795;28;20465;-54
2022/05/05 12:40:01;;;;;;;1.60;1.60;;;22.10;53.30;;;;;;5032011;28;20452;-56
2022/05/05 12:42:41;;;;;;;1.43;1.43;;;22.10;53.20;;;;;;5031917;28;20479;-56
2022/05/05 12:45:13;;;;;;;1.30;1.30;;;22.10;53.20;;;;;;5031948;28;20441;-53
2022/05/05 12:47:43;;;;;;;1.73;1.63;;;22.10;53.20;;;;;;5031595;28;20493;-54
2022/05/05 12:50:29;;;;;;;1.70;1.63;;;22.10;53.20;;;;;;5031993;28;20853;-55
2022/05/05 13:01:19;;;;;;;2.10;1.00;;;22.10;53.10;;;;;;5031884;28;20420;-51
2022/05/05 13:03:47;;;;;;;1.87;1.77;;;22.10;53.30;;;;;;5031726;28;20452;-56
2022/05/05 13:06:14;;;;;;;1.13;1.10;;;22.20;53.30;;;;;;5031514;28;20507;-57
2022/05/05 13:08:41;;;;;;;1.37;1.37;;;22.20;53.30;;;;;;5031364;28;20469;-52
2022/05/05 13:11:08;;;;;;;1.57;1.53;;;22.20;53.40;;;;;;5031498;28;20862;-54
2022/05/05 13:13:34;;;;;;;1.67;1.23;;;22.20;53.30;;;;;;5031624;28;20815;-56
2022/05/05 13:16:01;;;;;;;1.40;1.40;;;22.20;53.20;;;;;;5031642;28;20444;-55
2022/05/05 13:18:28;;;;;;;1.67;1.60;;;22.20;53.10;;;;;;5031173;28;20842;-54
2022/05/05 13:20:56;;;;;;;1.63;1.63;;;22.20;53.20;;;;;;5031584;28;20453;-58
2022/05/05 13:23:23;;;;;;;1.10;1.10;;;22.20;53.20;;;;;;5031372;28;20453;-55
2022/05/05 13:25:50;;;;;;;1.70;1.60;;;22.20;53.20;;;;;;5031277;28;20481;-53
2022/05/05 13:28:16;;;;;;;1.23;1.23;;;22.20;53.20;;;;;;5031054;28;21009;-54
2022/05/05 13:30:43;;;;;;;1.80;1.70;;;22.20;53.10;;;;;;5031564;28;20797;-57
2022/05/05 13:33:10;;;;;;;1.20;1.20;;;22.30;53.30;;;;;;5031470;28;20574;-53
2022/05/05 13:35:36;;;;;;;1.73;1.50;;;22.30;53.20;;;;;;5032482;28;20452;-54
2022/05/05 13:38:05;;;;;;;1.43;1.33;;;22.30;53.30;;;;;;5035158;28;20475;-54
2022/05/05 13:40:31;;;;;;;1.40;1.40;;;22.30;53.20;;;;;;5035405;28;20809;-58
2022/05/05 13:42:58;;;;;;;1.73;1.63;;;22.30;53.20;;;;;;5035284;28;20445;-54
2022/05/05 13:45:26;;;;;;;1.77;1.77;;;22.30;53.20;;;;;;5035198;28;20447;-56
2022/05/05 13:47:53;;;;;;;1.90;1.80;;;22.30;53.20;;;;;;5034921;28;20905;-56
2022/05/05 13:50:21;;;;;;;2.13;1.70;;;22.30;53.20;;;;;;5035130;28;20493;-58
2022/05/05 13:52:47;;;;;;;1.70;1.60;;;22.30;53.20;;;;;;5035121;28;20868;-56
2022/05/05 13:55:15;;;;;;;1.47;1.30;;;22.40;53.30;;;;;;5035090;28;20456;-58
2022/05/05 13:57:43;;;;;;;1.63;1.53;;;22.40;53.20;;;;;;5034754;28;20465;-51
2022/05/05 14:00:13;;;;;;;1.90;1.80;;;22.40;53.20;;;;;;5035021;28;20449;-58
2022/05/05 14:02:40;;;;;;;1.30;1.30;;;22.40;53.10;;;;;;5035010;28;20492;-57
2022/05/05 14:05:08;;;;;;;1.40;1.40;;;22.40;53.00;;;;;;5034917;28;20445;-53
2022/05/05 14:13:05;;;;;;;1.87;1.77;;;22.50;53.10;;;;;;5034982;28;20428;-53
2022/05/05 14:15:32;;;;;;;1.27;1.27;;;22.50;53.10;;;;;;5034632;28;20448;-54
2022/05/05 14:17:59;;;;;;;1.73;1.73;;;22.50;53.00;;;;;;5034340;28;20518;-53
2022/05/05 14:20:28;;;;;;;1.80;1.70;;;22.50;53.00;;;;;;5034511;28;20445;-58
2022/05/05 14:22:55;;;;;;;1.67;1.67;;;22.60;53.10;;;;;;5034450;28;20453;-49
2022/05/05 14:25:23;;;;;;;1.90;1.80;;;22.60;53.20;;;;;;5034398;28;20453;-56
2022/05/05 14:27:50;;;;;;;1.17;1.17;;;22.60;53.20;;;;;;5034011;28;20846;-56
2022/05/05 14:30:17;;;;;;;1.47;1.47;;;22.60;53.20;;;;;;5034513;28;21112;-55
2022/05/05 14:32:45;;;;;;;1.57;1.57;;;22.60;53.30;;;;;;5034329;28;20499;-53
2022/05/05 14:35:12;;;;;;;1.63;1.60;;;22.70;53.30;;;;;;5034358;28;20457;-57
2022/05/05 14:37:39;;;;;;;1.27;1.27;;;22.60;53.20;;;;;;5033977;28;20472;-55
2022/05/05 14:40:07;;;;;;;1.80;1.80;;;22.70;53.30;;;;;;5034236;28;20452;-56
2022/05/05 14:42:36;;;;;;;1.70;1.60;;;22.70;53.30;;;;;;5033966;28;20957;-55
2022/05/05 14:45:03;;;;;;;1.70;1.60;;;22.70;53.20;;;;;;5034121;28;20521;-54
2022/05/05 14:47:29;;;;;;;1.50;1.40;;;22.70;53.20;;;;;;5033324;28;20855;-52
2022/05/05 14:49:56;;;;;;;1.40;1.40;;;22.80;53.30;;;;;;5033957;28;20441;-55
2022/05/05 14:52:23;;;;;;;1.40;1.40;;;22.80;53.20;;;;;;5033943;28;20822;-58
2022/05/05 14:54:50;;;;;;;1.10;1.10;;;22.80;53.40;;;;;;5033929;28;20453;-56
2022/05/05 14:57:19;;;;;;;1.63;1.33;;;22.90;53.50;;;;;;5033614;28;20437;-55
2022/05/05 14:59:47;;;;;;;1.13;1.13;;;22.90;53.70;;;;;;5033822;28;20456;-54
2022/05/05 15:02:15;;;;;;;1.77;1.77;;;22.90;53.50;;;;;;5033882;28;20530;-51
2022/05/05 15:04:41;;;;;;;1.60;1.60;;;22.90;53.50;;;;;;5033706;28;20453;-56
2022/05/05 15:07:08;;;;;;;2.13;1.93;;;23.00;54.10;;;;;;5033239;28;20477;-51
2022/05/05 15:09:35;;;;;;;1.27;1.27;;;23.00;54.10;;;;;;5033684;28;20452;-55
2022/05/05 15:12:02;;;;;;;1.87;1.87;;;22.90;53.50;;;;;;5033599;28;20445;-53
2022/05/05 15:14:28;;;;;;;1.30;1.20;;;23.00;53.50;;;;;;5033564;28;20453;-54
2022/05/05 15:16:59;;;;;;;1.30;1.30;;;23.00;53.40;;;;;;5033520;28;20441;-50
2022/05/05 15:19:27;;;;;;;1.47;1.47;;;23.00;53.40;;;;;;5033485;28;20450;-52
2022/05/05 15:21:55;;;;;;;1.30;1.30;;;23.00;53.40;;;;;;5033481;28;20449;-48
2022/05/05 15:24:21;;;;;;;1.17;1.10;;;23.00;53.30;;;;;;5033459;28;20468;-49
2022/05/05 15:26:48;;;;;;;1.20;1.20;;;23.10;53.40;;;;;;5033094;28;20488;-48
2022/05/05 15:29:16;;;;;;;1.20;1.20;;;23.10;53.30;;;;;;5033065;28;20477;-51
2022/05/05 15:31:43;;;;;;;1.73;1.63;;;23.10;53.20;;;;;;5033445;28;20859;-48
2022/05/05 15:34:11;;;;;;;1.20;1.20;;;23.10;53.20;;;;;;5033253;28;20439;-49
2022/05/05 15:36:38;;;;;;;1.80;1.60;;;23.10;53.10;;;;;;5033049;28;20440;-50
2022/05/05 15:39:04;;;;;;;1.50;1.40;;;23.20;53.10;;;;;;5032957;28;20469;-50
2022/05/05 15:41:31;;;;;;;1.03;1.03;;;23.10;53.00;;;;;;5033067;28;20445;-49
2022/05/05 15:43:58;;;;;;;1.10;1.10;;;23.20;53.10;;;;;;5033096;28;20926;-48
2022/05/05 15:46:25;;;;;;;1.60;1.50;;;23.20;53.10;;;;;;5032802;28;20456;-49
2022/05/05 15:48:52;;;;;;;1.27;1.27;;;23.20;53.20;;;;;;5032908;28;21009;-48
2022/05/05 15:51:20;;;;;;;1.53;1.53;;;23.20;53.20;;;;;;5032933;28;20449;-49
2022/05/05 15:53:48;;;;;;;1.90;1.80;;;23.20;53.30;;;;;;5032918;28;20448;-49
2022/05/05 15:56:14;;;;;;;1.13;1.13;;;23.20;53.40;;;;;;5032803;28;20970;-48
2022/05/05 15:58:41;;;;;;;1.77;1.70;;;23.10;53.30;;;;;;5031690;28;20826;-50
2022/05/05 16:01:08;;;;;;;1.50;1.50;;;23.10;53.40;;;;;;5032768;28;20460;-49
2022/05/05 16:03:36;;;;;;;1.80;1.80;;;23.10;53.40;;;;;;5032743;28;20455;-51
2022/05/05 16:06:05;;;;;;;1.13;1.13;;;23.10;53.40;;;;;;5032537;28;20449;-50
2022/05/05 16:08:34;;;;;;;1.50;1.43;;;23.20;53.40;;;;;;5032200;28;20496;-49
2022/05/05 16:11:00;;;;;;;1.20;1.20;;;23.20;53.50;;;;;;5032495;28;20486;-52
2022/05/05 16:13:27;;;;;;;1.53;1.50;;;23.10;53.40;;;;;;5032523;28;20814;-49
2022/05/05 16:15:54;;;;;;;1.20;1.20;;;23.10;53.30;;;;;;5032463;28;20449;-54
2022/05/05 16:18:21;;;;;;;1.70;1.60;;;23.20;53.40;;;;;;5032138;28;20465;-49
2022/05/05 16:20:48;;;;;;;1.50;1.50;;;23.20;53.40;;;;;;5032469;28;20453;-49
2022/05/05 16:23:15;;;;;;;1.50;1.50;;;23.20;53.40;;;;;;5039276;28;20457;-55
2022/05/05 16:31:26;;;;;;;1.60;1.60;;;23.10;53.50;;;;;;4971189;28;20487;-50
2022/05/05 16:33:53;;;;;;;1.33;1.33;;;23.20;53.60;;;;;;4971007;28;20527;-47
2022/05/05 16:36:20;;;;;;;1.20;1.20;;;23.10;53.60;;;;;;4997443;28;20445;-47
2022/05/05 16:38:47;;;;;;;1.97;1.97;;;23.10;53.60;;;;;;5031833;28;20453;-47
2022/05/05 16:41:16;;;;;;;1.10;1.10;;;23.10;53.60;;;;;;5032036;28;20801;-48
2022/05/05 16:43:44;;;;;;;1.40;1.30;;;23.10;53.50;;;;;;5031968;28;20514;-50
2022/05/05 16:46:11;;;;;;;1.47;1.47;;;23.10;53.50;;;;;;5031967;28;20445;-47
2022/05/05 16:48:37;;;;;;;1.20;1.20;;;23.10;53.50;;;;;;5031396;28;20481;-47
2022/05/05 16:51:04;;;;;;;1.53;1.47;;;23.10;53.60;;;;;;5031921;28;20445;-47
2022/05/05 16:53:31;;;;;;;1.20;1.20;;;23.10;53.60;;;;;;5031858;28;20456;-48
2022/05/05 16:55:58;;;;;;;1.70;1.70;;;23.10;53.60;;;;;;5031664;28;20453;-47
2022/05/05 16:58:26;;;;;;;1.27;1.27;;;23.10;53.70;;;;;;5031488;28;20471;-49
2022/05/05 17:00:54;;;;;;;1.43;1.40;;;23.10;53.70;;;;;;5031102;28;20938;-49
2022/05/05 17:03:21;;;;;;;1.30;1.30;;;23.10;53.80;;;;;;5031911;28;20515;-58
2022/05/05 17:05:49;;;;;;;2.90;2.70;;;23.10;54.00;;;;;;5034164;28;20516;-62
2022/05/05 17:08:16;;;;;;;2.30;2.20;;;22.90;54.00;;;;;;5033721;28;20911;-59
2022/05/05 17:10:43;;;;;;;1.73;1.70;;;22.90;54.60;;;;;;5031571;28;20476;-60
2022/05/05 17:13:10;;;;;;;1.60;1.50;;;22.90;54.70;;;;;;5031685;28;20456;-58
2022/05/05 17:15:38;;;;;;;1.93;1.90;;;23.00;54.90;;;;;;5032396;28;20813;-58
2022/05/05 17:18:06;;;;;;;2.20;2.10;;;23.00;55.00;;;;;;5033005;28;20544;-66
2022/05/05 17:20:33;;;;;;;2.03;1.93;;;23.00;55.00;;;;;;5033600;28;20449;-68
2022/05/05 17:23:00;;;;;;;2.37;1.97;;;23.00;55.20;;;;;;5032356;28;20506;-69
2022/05/05 17:25:27;;;;;;;2.20;2.10;;;23.00;55.30;;;;;;5032229;28;20927;-69
2022/05/05 17:27:54;;;;;;;1.97;1.87;;;23.00;55.00;;;;;;5032192;28;20500;-69
2022/05/05 17:30:21;;;;;;;2.60;2.50;;;22.90;53.90;;;;;;5032657;28;20445;-68
2022/05/05 17:32:49;;;;;;;2.40;2.30;;;22.90;53.70;;;;;;5032333;28;20452;-67
2022/05/05 17:35:15;;;;;;;2.37;2.23;;;22.90;53.80;;;;;;5032911;28;20449;-68
2022/05/05 17:37:42;;;;;;;2.33;2.23;;;22.90;54.00;;;;;;5032502;28;20457;-67
2022/05/05 17:40:10;;;;;;;2.10;2.00;;;22.90;54.00;;;;;;5032451;28;20451;-68
2022/05/05 17:42:37;;;;;;;2.40;2.20;;;22.90;54.00;;;;;;5032785;28;20856;-68
2022/05/05 17:50:34;;;;;;;1.60;1.57;;;22.90;53.90;;;;;;5032227;28;20996;-68
2022/05/05 17:53:03;;;;;;;1.80;1.80;;;22.80;53.80;;;;;;5032501;28;20499;-67
2022/05/05 17:55:30;;;;;;;1.97;1.87;;;22.80;53.90;;;;;;5032591;28;20768;-74
2022/05/05 17:57:58;;;;;;;2.17;2.07;;;22.80;53.90;;;;;;5032459;28;20461;-68
2022/05/05 18:00:25;;;;;;;1.90;1.80;;;22.80;53.90;;;;;;5032333;28;20453;-68
2022/05/05 18:02:54;;;;;;;2.40;2.30;;;22.80;54.00;;;;;;5033612;28;20441;-70
2022/05/05 18:05:21;;;;;;;3.07;2.23;;;22.80;54.10;;;;;;5034338;28;20445;-71
2022/05/05 18:07:48;;;;;;;2.40;2.30;;;22.80;54.00;;;;;;5033463;28;20489;-71
2022/05/05 18:10:15;;;;;;;1.80;1.80;;;22.90;54.00;;;;;;5033243;28;20477;-72
2022/05/05 18:12:45;;;;;;;2.30;2.10;;;22.90;53.90;;;;;;5032361;28;20445;-71
2022/05/05 18:15:13;;;;;;;2.13;2.03;;;22.90;53.90;;;;;;5031906;28;20448;-71
2022/05/05 18:17:40;;;;;;;2.33;1.87;;;22.90;54.40;;;;;;5032631;28;20468;-71
2022/05/05 18:20:09;;;;;;;1.93;1.90;;;22.90;53.80;;;;;;5033568;28;20441;-71
2022/05/05 18:22:36;;;;;;;2.47;2.30;;;22.90;53.80;;;;;;5035773;28;20453;-71
2022/05/05 18:25:03;;;;;;;2.70;2.10;;;22.90;53.70;;;;;;5036977;28;20811;-71
2022/05/05 18:27:32;;;;;;;1.80;1.70;;;22.90;53.80;;;;;;5035844;28;20484;-71
2022/05/05 18:29:59;;;;;;;2.10;2.00;;;22.90;53.70;;;;;;5036618;28;20449;-72
2022/05/05 18:32:26;;;;;;;2.07;1.97;;;22.90;53.70;;;;;;5036365;28;20484;-71
2022/05/05 18:34:53;;;;;;;2.23;2.10;;;22.90;53.70;;;;;;5036488;28;20449;-71
2022/05/05 18:37:21;;;;;;;1.80;1.70;;;22.90;53.80;;;;;;5036102;28;20452;-71
2022/05/05 18:39:49;;;;;;;1.60;1.50;;;22.90;53.70;;;;;;5036339;28;20452;-71
2022/05/05 18:42:16;;;;;;;2.03;1.93;;;22.90;53.70;;;;;;5036399;28;20455;-71
2022/05/05 18:44:43;;;;;;;1.37;1.37;;;22.90;53.70;;;;;;5035953;28;20456;-71
2022/05/05 18:47:10;;;;;;;1.37;1.37;;;22.90;53.70;;;;;;5035515;28;20456;-71
2022/05/05 18:49:38;;;;;;;2.00;1.90;;;22.90;53.70;;;;;;5035878;28;20448;-72
2022/05/05 18:52:06;;;;;;;1.70;1.70;;;22.90;53.80;;;;;;5035616;28;20539;-71
2022/05/05 18:54:35;;;;;;;1.77;1.67;;;22.90;53.70;;;;;;5035841;28;20826;-71
2022/05/05 18:57:01;;;;;;;1.97;1.87;;;22.90;53.70;;;;;;5035722;28;20448;-72
2022/05/05 18:59:28;;;;;;;1.77;1.67;;;22.90;53.70;;;;;;5035585;28;20437;-71
2022/05/05 19:01:55;;;;;;;1.70;1.70;;;22.90;53.70;;;;;;5035323;28;20444;-71
2022/05/05 19:04:22;;;;;;;1.47;1.47;;;22.90;53.80;;;;;;5035547;28;20452;-72